sensor_id;sensor_type;location;lat;lon;timestamp;P1;durP1;ratioP1;P2;durP2;ratioP2
63203;SDS011;49297;43.210;27.914;2023-03-01T00:01:35;2.72;;;2.53;;
63203;SDS011;49297;43.210;27.914;2023-03-01T00:04:02;3.75;;;3.17;;
63203;SDS011;49297;43.210;27.914;2023-03-01T00:06:28;4.18;;;3.70;;
63203;SDS011;49297;43.210;27.914;2023-03-01T00:08:53;4.32;;;3.15;;
63203;SDS011;49297;43.210;27.914;2023-03-01T00:11:21;3.63;;;2.88;;
63203;SDS011;49297;43.210;27.914;2023-03-01T00:13:49;4.18;;;2.95;;
63203;SDS011;49297;43.210;27.914;2023-03-01T00:16:22;3.50;;;2.97;;
63203;SDS011;49297;43.210;27.914;2023-03-01T00:18:59;3.03;;;2.70;;
63203;SDS011;49297;43.210;27.914;2023-03-01T00:21:26;3.45;;;2.70;;
63203;SDS011;49297;43.210;27.914;2023-03-01T00:23:52;2.95;;;2.65;;
63203;SDS011;49297;43.210;27.914;2023-03-01T00:26:20;2.88;;;2.60;;
63203;SDS011;49297;43.210;27.914;2023-03-01T00:28:47;3.97;;;3.47;;
63203;SDS011;49297;43.210;27.914;2023-03-01T00:31:14;4.50;;;2.85;;
63203;SDS011;49297;43.210;27.914;2023-03-01T00:33:42;4.43;;;3.08;;
63203;SDS011;49297;43.210;27.914;2023-03-01T00:36:09;4.20;;;3.28;;
63203;SDS011;49297;43.210;27.914;2023-03-01T00:38:37;3.85;;;3.40;;
63203;SDS011;49297;43.210;27.914;2023-03-01T00:41:08;11.25;;;4.70;;
63203;SDS011;49297;43.210;27.914;2023-03-01T00:43:35;4.45;;;4.03;;
63203;SDS011;49297;43.210;27.914;2023-03-01T00:46:03;3.45;;;3.10;;
63203;SDS011;49297;43.210;27.914;2023-03-01T00:48:31;5.93;;;4.13;;
63203;SDS011;49297;43.210;27.914;2023-03-01T00:51:03;4.57;;;4.10;;
63203;SDS011;49297;43.210;27.914;2023-03-01T00:53:33;4.47;;;3.70;;
63203;SDS011;49297;43.210;27.914;2023-03-01T00:56:00;4.65;;;3.35;;
63203;SDS011;49297;43.210;27.914;2023-03-01T00:58:26;4.25;;;3.45;;
63203;SDS011;49297;43.210;27.914;2023-03-01T01:00:52;3.60;;;2.75;;
63203;SDS011;49297;43.210;27.914;2023-03-01T01:03:18;2.88;;;2.35;;
63203;SDS011;49297;43.210;27.914;2023-03-01T01:05:44;4.45;;;3.03;;
63203;SDS011;49297;43.210;27.914;2023-03-01T01:08:10;4.25;;;3.85;;
63203;SDS011;49297;43.210;27.914;2023-03-01T01:10:37;6.28;;;3.50;;
63203;SDS011;49297;43.210;27.914;2023-03-01T01:13:03;3.63;;;3.33;;
63203;SDS011;49297;43.210;27.914;2023-03-01T01:15:31;4.35;;;3.60;;
63203;SDS011;49297;43.210;27.914;2023-03-01T01:17:59;4.22;;;3.13;;
63203;SDS011;49297;43.210;27.914;2023-03-01T01:20:25;3.30;;;3.00;;
63203;SDS011;49297;43.210;27.914;2023-03-01T01:22:51;3.92;;;3.28;;
63203;SDS011;49297;43.210;27.914;2023-03-01T01:25:17;6.72;;;5.00;;
63203;SDS011;49297;43.210;27.914;2023-03-01T01:27:43;7.07;;;4.82;;
63203;SDS011;49297;43.210;27.914;2023-03-01T01:30:09;4.97;;;4.38;;
63203;SDS011;49297;43.210;27.914;2023-03-01T01:32:35;7.32;;;5.78;;
63203;SDS011;49297;43.210;27.914;2023-03-01T01:35:01;8.93;;;5.53;;
63203;SDS011;49297;43.210;27.914;2023-03-01T01:37:27;5.53;;;5.03;;
63203;SDS011;49297;43.210;27.914;2023-03-01T01:39:57;6.40;;;5.22;;
63203;SDS011;49297;43.210;27.914;2023-03-01T01:42:24;8.63;;;7.00;;
63203;SDS011;49297;43.210;27.914;2023-03-01T01:47:56;5.45;;;5.03;;
63203;SDS011;49297;43.210;27.914;2023-03-01T01:50:26;6.13;;;4.85;;
63203;SDS011;49297;43.210;27.914;2023-03-01T01:52:52;4.88;;;4.32;;
63203;SDS011;49297;43.210;27.914;2023-03-01T01:55:21;6.72;;;4.97;;
63203;SDS011;49297;43.210;27.914;2023-03-01T01:57:51;6.32;;;4.85;;
63203;SDS011;49297;43.210;27.914;2023-03-01T02:00:22;5.88;;;4.68;;
63203;SDS011;49297;43.210;27.914;2023-03-01T02:02:57;6.47;;;5.28;;
63203;SDS011;49297;43.210;27.914;2023-03-01T02:08:18;6.20;;;5.63;;
63203;SDS011;49297;43.210;27.914;2023-03-01T02:10:46;7.40;;;6.60;;
63203;SDS011;49297;43.210;27.914;2023-03-01T02:13:14;7.38;;;6.05;;
63203;SDS011;49297;43.210;27.914;2023-03-01T02:15:40;6.32;;;5.70;;
63203;SDS011;49297;43.210;27.914;2023-03-01T02:18:09;6.20;;;5.20;;
63203;SDS011;49297;43.210;27.914;2023-03-01T02:23:20;7.77;;;5.83;;
63203;SDS011;49297;43.210;27.914;2023-03-01T02:28:38;7.68;;;6.13;;
63203;SDS011;49297;43.210;27.914;2023-03-01T02:31:05;8.55;;;6.15;;
63203;SDS011;49297;43.210;27.914;2023-03-01T02:33:52;6.72;;;6.13;;
63203;SDS011;49297;43.210;27.914;2023-03-01T02:36:19;7.50;;;6.55;;
63203;SDS011;49297;43.210;27.914;2023-03-01T02:38:49;7.75;;;6.95;;
63203;SDS011;49297;43.210;27.914;2023-03-01T02:41:17;6.80;;;6.20;;
63203;SDS011;49297;43.210;27.914;2023-03-01T02:43:45;8.25;;;7.40;;
63203;SDS011;49297;43.210;27.914;2023-03-01T02:46:18;9.15;;;7.65;;
63203;SDS011;49297;43.210;27.914;2023-03-01T02:48:50;7.90;;;7.13;;
63203;SDS011;49297;43.210;27.914;2023-03-01T02:51:22;7.15;;;6.45;;
63203;SDS011;49297;43.210;27.914;2023-03-01T02:56:36;7.55;;;6.88;;
63203;SDS011;49297;43.210;27.914;2023-03-01T02:59:02;6.97;;;6.25;;
63203;SDS011;49297;43.210;27.914;2023-03-01T03:01:28;9.25;;;6.85;;
63203;SDS011;49297;43.210;27.914;2023-03-01T03:04:02;9.03;;;8.13;;
63203;SDS011;49297;43.210;27.914;2023-03-01T03:06:29;9.35;;;8.20;;
63203;SDS011;49297;43.210;27.914;2023-03-01T03:08:55;9.15;;;7.57;;
63203;SDS011;49297;43.210;27.914;2023-03-01T03:11:21;11.43;;;9.10;;
63203;SDS011;49297;43.210;27.914;2023-03-01T03:13:47;9.40;;;8.55;;
63203;SDS011;49297;43.210;27.914;2023-03-01T03:16:13;12.30;;;10.15;;
63203;SDS011;49297;43.210;27.914;2023-03-01T03:18:40;9.18;;;7.85;;
63203;SDS011;49297;43.210;27.914;2023-03-01T03:21:09;10.30;;;9.27;;
63203;SDS011;49297;43.210;27.914;2023-03-01T03:23:37;9.27;;;8.40;;
63203;SDS011;49297;43.210;27.914;2023-03-01T03:26:04;13.30;;;10.55;;
63203;SDS011;49297;43.210;27.914;2023-03-01T03:30:56;9.38;;;8.38;;
63203;SDS011;49297;43.210;27.914;2023-03-01T03:33:23;10.75;;;9.70;;
63203;SDS011;49297;43.210;27.914;2023-03-01T03:35:49;10.02;;;8.65;;
63203;SDS011;49297;43.210;27.914;2023-03-01T03:38:17;12.30;;;10.02;;
63203;SDS011;49297;43.210;27.914;2023-03-01T03:40:45;11.27;;;10.25;;
63203;SDS011;49297;43.210;27.914;2023-03-01T03:43:16;12.15;;;9.45;;
63203;SDS011;49297;43.210;27.914;2023-03-01T03:45:47;10.57;;;8.88;;
63203;SDS011;49297;43.210;27.914;2023-03-01T03:48:15;11.10;;;9.82;;
63203;SDS011;49297;43.210;27.914;2023-03-01T03:50:46;12.52;;;10.63;;
63203;SDS011;49297;43.210;27.914;2023-03-01T03:53:14;11.85;;;10.45;;
63203;SDS011;49297;43.210;27.914;2023-03-01T03:55:40;11.10;;;9.98;;
63203;SDS011;49297;43.210;27.914;2023-03-01T03:58:09;11.40;;;10.20;;
63203;SDS011;49297;43.210;27.914;2023-03-01T04:00:36;12.32;;;10.88;;
63203;SDS011;49297;43.210;27.914;2023-03-01T04:03:04;11.75;;;10.60;;
63203;SDS011;49297;43.210;27.914;2023-03-01T04:05:30;14.38;;;11.00;;
63203;SDS011;49297;43.210;27.914;2023-03-01T04:07:56;11.30;;;10.20;;
63203;SDS011;49297;43.210;27.914;2023-03-01T04:10:36;10.48;;;9.48;;
63203;SDS011;49297;43.210;27.914;2023-03-01T04:13:04;13.98;;;10.52;;
63203;SDS011;49297;43.210;27.914;2023-03-01T04:15:32;12.65;;;11.35;;
63203;SDS011;49297;43.210;27.914;2023-03-01T04:17:58;10.75;;;9.65;;
63203;SDS011;49297;43.210;27.914;2023-03-01T04:20:26;11.63;;;10.32;;
63203;SDS011;49297;43.210;27.914;2023-03-01T04:22:58;11.93;;;10.32;;
63203;SDS011;49297;43.210;27.914;2023-03-01T04:26:08;10.88;;;9.93;;
63203;SDS011;49297;43.210;27.914;2023-03-01T04:28:29;17.27;;;11.65;;
63203;SDS011;49297;43.210;27.914;2023-03-01T04:31:01;11.85;;;10.63;;
63203;SDS011;49297;43.210;27.914;2023-03-01T04:33:38;12.35;;;11.07;;
63203;SDS011;49297;43.210;27.914;2023-03-01T04:36:06;11.82;;;9.45;;
63203;SDS011;49297;43.210;27.914;2023-03-01T04:38:34;11.95;;;10.77;;
63203;SDS011;49297;43.210;27.914;2023-03-01T04:41:08;14.85;;;11.05;;
63203;SDS011;49297;43.210;27.914;2023-03-01T04:43:36;11.85;;;10.75;;
63203;SDS011;49297;43.210;27.914;2023-03-01T04:46:03;11.68;;;10.35;;
63203;SDS011;49297;43.210;27.914;2023-03-01T04:48:37;11.68;;;10.57;;
63203;SDS011;49297;43.210;27.914;2023-03-01T04:51:05;12.57;;;11.25;;
63203;SDS011;49297;43.210;27.914;2023-03-01T04:53:31;13.13;;;11.93;;
63203;SDS011;49297;43.210;27.914;2023-03-01T04:55:58;13.63;;;10.57;;
63203;SDS011;49297;43.210;27.914;2023-03-01T04:58:27;10.98;;;9.88;;
63203;SDS011;49297;43.210;27.914;2023-03-01T05:00:54;10.52;;;9.25;;
63203;SDS011;49297;43.210;27.914;2023-03-01T05:03:20;13.30;;;11.93;;
63203;SDS011;49297;43.210;27.914;2023-03-01T05:05:47;10.95;;;8.98;;
63203;SDS011;49297;43.210;27.914;2023-03-01T05:08:14;12.48;;;11.07;;
63203;SDS011;49297;43.210;27.914;2023-03-01T05:10:48;12.40;;;11.20;;
63203;SDS011;49297;43.210;27.914;2023-03-01T05:13:15;12.48;;;9.90;;
63203;SDS011;49297;43.210;27.914;2023-03-01T05:15:46;13.45;;;11.27;;
63203;SDS011;49297;43.210;27.914;2023-03-01T05:18:14;12.45;;;11.27;;
63203;SDS011;49297;43.210;27.914;2023-03-01T05:20:39;11.90;;;10.65;;
63203;SDS011;49297;43.210;27.914;2023-03-01T05:23:06;12.63;;;9.57;;
63203;SDS011;49297;43.210;27.914;2023-03-01T05:25:32;13.32;;;10.32;;
63203;SDS011;49297;43.210;27.914;2023-03-01T05:28:00;11.63;;;10.52;;
63203;SDS011;49297;43.210;27.914;2023-03-01T05:30:33;11.88;;;10.70;;
63203;SDS011;49297;43.210;27.914;2023-03-01T05:32:59;25.00;;;11.35;;
63203;SDS011;49297;43.210;27.914;2023-03-01T05:35:26;12.38;;;10.88;;
63203;SDS011;49297;43.210;27.914;2023-03-01T05:38:01;15.73;;;10.60;;
63203;SDS011;49297;43.210;27.914;2023-03-01T05:40:27;13.27;;;10.80;;
63203;SDS011;49297;43.210;27.914;2023-03-01T05:42:55;12.85;;;11.52;;
63203;SDS011;49297;43.210;27.914;2023-03-01T05:45:22;10.68;;;9.60;;
63203;SDS011;49297;43.210;27.914;2023-03-01T05:47:50;10.77;;;9.88;;
63203;SDS011;49297;43.210;27.914;2023-03-01T05:50:21;12.57;;;10.63;;
63203;SDS011;49297;43.210;27.914;2023-03-01T05:52:52;11.23;;;9.48;;
63203;SDS011;49297;43.210;27.914;2023-03-01T05:55:23;12.10;;;10.90;;
63203;SDS011;49297;43.210;27.914;2023-03-01T05:57:49;12.73;;;10.23;;
63203;SDS011;49297;43.210;27.914;2023-03-01T06:00:15;10.20;;;9.15;;
63203;SDS011;49297;43.210;27.914;2023-03-01T06:02:44;12.40;;;10.98;;
63203;SDS011;49297;43.210;27.914;2023-03-01T06:05:11;13.77;;;8.85;;
63203;SDS011;49297;43.210;27.914;2023-03-01T06:07:39;12.35;;;11.00;;
63203;SDS011;49297;43.210;27.914;2023-03-01T06:10:06;11.23;;;10.02;;
63203;SDS011;49297;43.210;27.914;2023-03-01T06:12:34;11.32;;;10.32;;
63203;SDS011;49297;43.210;27.914;2023-03-01T06:15:01;14.50;;;13.07;;
63203;SDS011;49297;43.210;27.914;2023-03-01T06:17:29;18.90;;;16.92;;
63203;SDS011;49297;43.210;27.914;2023-03-01T06:19:55;16.17;;;14.73;;
63203;SDS011;49297;43.210;27.914;2023-03-01T06:22:21;12.60;;;11.30;;
63203;SDS011;49297;43.210;27.914;2023-03-01T06:24:47;14.73;;;11.07;;
63203;SDS011;49297;43.210;27.914;2023-03-01T06:27:13;12.73;;;11.50;;
63203;SDS011;49297;43.210;27.914;2023-03-01T06:29:39;13.77;;;8.88;;
63203;SDS011;49297;43.210;27.914;2023-03-01T06:32:05;12.80;;;11.38;;
63203;SDS011;49297;43.210;27.914;2023-03-01T06:34:31;12.27;;;10.80;;
63203;SDS011;49297;43.210;27.914;2023-03-01T06:36:57;11.70;;;10.55;;
63203;SDS011;49297;43.210;27.914;2023-03-01T06:39:23;11.13;;;10.13;;
63203;SDS011;49297;43.210;27.914;2023-03-01T06:41:48;10.63;;;9.52;;
63203;SDS011;49297;43.210;27.914;2023-03-01T06:44:14;11.55;;;10.32;;
63203;SDS011;49297;43.210;27.914;2023-03-01T06:46:40;11.18;;;10.00;;
63203;SDS011;49297;43.210;27.914;2023-03-01T06:49:06;12.57;;;10.52;;
63203;SDS011;49297;43.210;27.914;2023-03-01T06:51:35;12.10;;;10.05;;
63203;SDS011;49297;43.210;27.914;2023-03-01T06:54:02;13.02;;;11.73;;
63203;SDS011;49297;43.210;27.914;2023-03-01T06:56:29;12.32;;;10.95;;
63203;SDS011;49297;43.210;27.914;2023-03-01T06:58:56;12.48;;;11.18;;
63203;SDS011;49297;43.210;27.914;2023-03-01T07:01:21;11.85;;;10.60;;
63203;SDS011;49297;43.210;27.914;2023-03-01T07:03:47;10.70;;;9.68;;
63203;SDS011;49297;43.210;27.914;2023-03-01T07:06:13;12.85;;;11.15;;
63203;SDS011;49297;43.210;27.914;2023-03-01T07:08:40;13.98;;;12.30;;
63203;SDS011;49297;43.210;27.914;2023-03-01T07:11:06;12.15;;;11.00;;
63203;SDS011;49297;43.210;27.914;2023-03-01T07:13:32;14.32;;;10.20;;
63203;SDS011;49297;43.210;27.914;2023-03-01T07:15:58;16.63;;;11.68;;
63203;SDS011;49297;43.210;27.914;2023-03-01T07:18:23;14.00;;;11.85;;
63203;SDS011;49297;43.210;27.914;2023-03-01T07:20:49;12.40;;;10.85;;
63203;SDS011;49297;43.210;27.914;2023-03-01T07:23:15;11.65;;;10.55;;
63203;SDS011;49297;43.210;27.914;2023-03-01T07:25:41;13.10;;;11.80;;
63203;SDS011;49297;43.210;27.914;2023-03-01T07:28:07;12.15;;;11.00;;
63203;SDS011;49297;43.210;27.914;2023-03-01T07:30:33;14.73;;;12.50;;
63203;SDS011;49297;43.210;27.914;2023-03-01T07:32:58;12.50;;;11.30;;
63203;SDS011;49297;43.210;27.914;2023-03-01T07:35:25;11.95;;;10.10;;
63203;SDS011;49297;43.210;27.914;2023-03-01T07:37:52;14.25;;;12.32;;
63203;SDS011;49297;43.210;27.914;2023-03-01T07:40:18;13.25;;;11.73;;
63203;SDS011;49297;43.210;27.914;2023-03-01T07:42:45;19.40;;;13.85;;
63203;SDS011;49297;43.210;27.914;2023-03-01T07:45:10;15.18;;;11.48;;
63203;SDS011;49297;43.210;27.914;2023-03-01T07:47:38;12.80;;;11.55;;
63203;SDS011;49297;43.210;27.914;2023-03-01T07:50:04;13.02;;;11.82;;
63203;SDS011;49297;43.210;27.914;2023-03-01T07:52:30;13.93;;;12.30;;
63203;SDS011;49297;43.210;27.914;2023-03-01T07:54:56;18.35;;;16.55;;
63203;SDS011;49297;43.210;27.914;2023-03-01T07:57:22;21.92;;;13.95;;
63203;SDS011;49297;43.210;27.914;2023-03-01T07:59:48;19.98;;;14.45;;
63203;SDS011;49297;43.210;27.914;2023-03-01T08:02:14;13.57;;;11.40;;
63203;SDS011;49297;43.210;27.914;2023-03-01T08:04:41;21.08;;;19.25;;
63203;SDS011;49297;43.210;27.914;2023-03-01T08:07:07;15.73;;;13.63;;
63203;SDS011;49297;43.210;27.914;2023-03-01T08:09:37;15.60;;;14.02;;
63203;SDS011;49297;43.210;27.914;2023-03-01T08:12:03;14.18;;;12.75;;
63203;SDS011;49297;43.210;27.914;2023-03-01T08:14:30;22.85;;;13.48;;
63203;SDS011;49297;43.210;27.914;2023-03-01T08:16:57;13.43;;;12.02;;
63203;SDS011;49297;43.210;27.914;2023-03-01T08:19:23;15.02;;;13.48;;
63203;SDS011;49297;43.210;27.914;2023-03-01T08:21:50;16.27;;;11.65;;
63203;SDS011;49297;43.210;27.914;2023-03-01T08:24:16;12.35;;;10.50;;
63203;SDS011;49297;43.210;27.914;2023-03-01T08:26:42;19.17;;;16.65;;
63203;SDS011;49297;43.210;27.914;2023-03-01T08:29:07;16.92;;;15.25;;
63203;SDS011;49297;43.210;27.914;2023-03-01T08:31:37;21.73;;;13.77;;
63203;SDS011;49297;43.210;27.914;2023-03-01T08:34:07;18.15;;;16.00;;
63203;SDS011;49297;43.210;27.914;2023-03-01T08:36:36;16.20;;;13.52;;
63203;SDS011;49297;43.210;27.914;2023-03-01T08:39:04;14.95;;;13.48;;
63203;SDS011;49297;43.210;27.914;2023-03-01T08:41:31;13.60;;;12.35;;
63203;SDS011;49297;43.210;27.914;2023-03-01T08:43:57;13.30;;;12.07;;
63203;SDS011;49297;43.210;27.914;2023-03-01T08:46:30;16.60;;;14.98;;
63203;SDS011;49297;43.210;27.914;2023-03-01T08:48:57;16.00;;;14.27;;
63203;SDS011;49297;43.210;27.914;2023-03-01T08:51:23;16.88;;;13.50;;
63203;SDS011;49297;43.210;27.914;2023-03-01T08:53:50;15.55;;;13.85;;
63203;SDS011;49297;43.210;27.914;2023-03-01T08:56:17;21.70;;;18.90;;
63203;SDS011;49297;43.210;27.914;2023-03-01T08:58:44;16.80;;;14.85;;
63203;SDS011;49297;43.210;27.914;2023-03-01T09:01:13;18.75;;;16.60;;
63203;SDS011;49297;43.210;27.914;2023-03-01T09:03:40;18.42;;;16.58;;
63203;SDS011;49297;43.210;27.914;2023-03-01T09:06:07;24.15;;;21.55;;
63203;SDS011;49297;43.210;27.914;2023-03-01T09:08:34;18.77;;;16.83;;
63203;SDS011;49297;43.210;27.914;2023-03-01T09:11:08;18.52;;;15.93;;
63203;SDS011;49297;43.210;27.914;2023-03-01T09:13:35;30.02;;;17.52;;
63203;SDS011;49297;43.210;27.914;2023-03-01T09:16:02;23.83;;;21.67;;
63203;SDS011;49297;43.210;27.914;2023-03-01T09:18:30;22.85;;;16.77;;
63203;SDS011;49297;43.210;27.914;2023-03-01T09:21:15;20.92;;;18.65;;
63203;SDS011;49297;43.210;27.914;2023-03-01T09:23:43;17.08;;;14.82;;
63203;SDS011;49297;43.210;27.914;2023-03-01T09:26:13;23.95;;;20.35;;
63203;SDS011;49297;43.210;27.914;2023-03-01T09:28:42;16.35;;;14.75;;
63203;SDS011;49297;43.210;27.914;2023-03-01T09:31:09;23.50;;;21.30;;
63203;SDS011;49297;43.210;27.914;2023-03-01T09:33:38;23.15;;;14.60;;
63203;SDS011;49297;43.210;27.914;2023-03-01T09:36:06;22.00;;;18.08;;
63203;SDS011;49297;43.210;27.914;2023-03-01T09:38:34;24.33;;;21.95;;
63203;SDS011;49297;43.210;27.914;2023-03-01T09:41:00;17.58;;;15.88;;
63203;SDS011;49297;43.210;27.914;2023-03-01T09:43:45;18.10;;;16.58;;
63203;SDS011;49297;43.210;27.914;2023-03-01T09:46:19;18.23;;;16.30;;
63203;SDS011;49297;43.210;27.914;2023-03-01T09:49:09;19.92;;;17.00;;
63203;SDS011;49297;43.210;27.914;2023-03-01T09:51:46;18.23;;;16.50;;
63203;SDS011;49297;43.210;27.914;2023-03-01T09:54:20;16.48;;;14.48;;
63203;SDS011;49297;43.210;27.914;2023-03-01T09:56:47;22.63;;;20.23;;
63203;SDS011;49297;43.210;27.914;2023-03-01T09:59:37;22.00;;;15.80;;
63203;SDS011;49297;43.210;27.914;2023-03-01T10:02:21;16.83;;;15.05;;
63203;SDS011;49297;43.210;27.914;2023-03-01T10:04:53;15.25;;;13.18;;
63203;SDS011;49297;43.210;27.914;2023-03-01T10:07:32;14.48;;;13.15;;
63203;SDS011;49297;43.210;27.914;2023-03-01T10:10:04;14.32;;;12.85;;
63203;SDS011;49297;43.210;27.914;2023-03-01T10:12:37;16.23;;;14.00;;
63203;SDS011;49297;43.210;27.914;2023-03-01T10:17:37;16.38;;;14.73;;
63203;SDS011;49297;43.210;27.914;2023-03-01T10:22:49;18.92;;;12.80;;
63203;SDS011;49297;43.210;27.914;2023-03-01T10:30:50;19.60;;;12.82;;
63203;SDS011;49297;43.210;27.914;2023-03-01T10:35:42;19.52;;;17.73;;
63203;SDS011;49297;43.210;27.914;2023-03-01T10:38:11;14.18;;;12.38;;
63203;SDS011;49297;43.210;27.914;2023-03-01T10:43:32;14.90;;;11.75;;
63203;SDS011;49297;43.210;27.914;2023-03-01T10:46:27;20.20;;;11.95;;
63203;SDS011;49297;43.210;27.914;2023-03-01T10:49:15;14.20;;;11.38;;
63203;SDS011;49297;43.210;27.914;2023-03-01T10:51:46;15.18;;;12.85;;
63203;SDS011;49297;43.210;27.914;2023-03-01T10:54:29;13.05;;;9.18;;
63203;SDS011;49297;43.210;27.914;2023-03-01T10:56:59;14.30;;;11.27;;
63203;SDS011;49297;43.210;27.914;2023-03-01T10:59:31;13.48;;;11.25;;
63203;SDS011;49297;43.210;27.914;2023-03-01T11:05:00;17.95;;;10.70;;
63203;SDS011;49297;43.210;27.914;2023-03-01T11:07:27;10.80;;;9.82;;
63203;SDS011;49297;43.210;27.914;2023-03-01T11:09:54;14.48;;;13.07;;
63203;SDS011;49297;43.210;27.914;2023-03-01T11:12:20;16.10;;;9.18;;
63203;SDS011;49297;43.210;27.914;2023-03-01T11:14:47;27.85;;;15.50;;
63203;SDS011;49297;43.210;27.914;2023-03-01T11:20:02;12.50;;;11.20;;
63203;SDS011;49297;43.210;27.914;2023-03-01T11:22:36;12.85;;;11.65;;
63203;SDS011;49297;43.210;27.914;2023-03-01T11:25:02;18.33;;;13.18;;
63203;SDS011;49297;43.210;27.914;2023-03-01T11:27:30;16.13;;;14.77;;
63203;SDS011;49297;43.210;27.914;2023-03-01T11:30:16;11.55;;;10.38;;
63203;SDS011;49297;43.210;27.914;2023-03-01T11:35:34;12.77;;;11.48;;
63203;SDS011;49297;43.210;27.914;2023-03-01T11:38:16;9.40;;;8.57;;
63203;SDS011;49297;43.210;27.914;2023-03-01T11:40:49;10.13;;;9.18;;
63203;SDS011;49297;43.210;27.914;2023-03-01T11:43:31;10.38;;;9.38;;
63203;SDS011;49297;43.210;27.914;2023-03-01T11:46:24;13.15;;;11.15;;
63203;SDS011;49297;43.210;27.914;2023-03-01T11:51:41;11.77;;;9.52;;
63203;SDS011;49297;43.210;27.914;2023-03-01T11:54:40;10.63;;;9.57;;
63203;SDS011;49297;43.210;27.914;2023-03-01T11:59:59;10.77;;;9.32;;
63203;SDS011;49297;43.210;27.914;2023-03-01T12:08:15;11.23;;;9.38;;
63203;SDS011;49297;43.210;27.914;2023-03-01T12:13:27;11.60;;;10.45;;
63203;SDS011;49297;43.210;27.914;2023-03-01T12:19:00;11.20;;;9.77;;
63203;SDS011;49297;43.210;27.914;2023-03-01T12:21:34;10.63;;;9.38;;
63203;SDS011;49297;43.210;27.914;2023-03-01T12:24:18;22.75;;;10.50;;
63203;SDS011;49297;43.210;27.914;2023-03-01T12:29:43;14.32;;;9.95;;
63203;SDS011;49297;43.210;27.914;2023-03-01T12:32:24;15.18;;;10.73;;
63203;SDS011;49297;43.210;27.914;2023-03-01T12:35:03;13.15;;;10.02;;
63203;SDS011;49297;43.210;27.914;2023-03-01T12:48:59;12.73;;;11.55;;
63203;SDS011;49297;43.210;27.914;2023-03-01T12:51:33;22.92;;;9.15;;
63203;SDS011;49297;43.210;27.914;2023-03-01T12:54:07;12.73;;;10.57;;
63203;SDS011;49297;43.210;27.914;2023-03-01T12:56:41;12.80;;;11.45;;
63203;SDS011;49297;43.210;27.914;2023-03-01T13:07:55;9.85;;;8.95;;
63203;SDS011;49297;43.210;27.914;2023-03-01T13:10:34;8.07;;;6.30;;
63203;SDS011;49297;43.210;27.914;2023-03-01T13:13:22;14.80;;;7.05;;
63203;SDS011;49297;43.210;27.914;2023-03-01T13:15:50;11.52;;;7.55;;
63203;SDS011;49297;43.210;27.914;2023-03-01T13:20:52;8.88;;;7.97;;
63203;SDS011;49297;43.210;27.914;2023-03-01T13:26:05;8.20;;;7.40;;
63203;SDS011;49297;43.210;27.914;2023-03-01T13:28:46;10.05;;;6.80;;
63203;SDS011;49297;43.210;27.914;2023-03-01T13:33:54;6.43;;;5.82;;
63203;SDS011;49297;43.210;27.914;2023-03-01T13:39:26;9.73;;;6.35;;
63203;SDS011;49297;43.210;27.914;2023-03-01T13:42:25;6.80;;;6.07;;
63203;SDS011;49297;43.210;27.914;2023-03-01T13:44:58;9.25;;;7.50;;
63203;SDS011;49297;43.210;27.914;2023-03-01T13:47:25;10.35;;;7.43;;
63203;SDS011;49297;43.210;27.914;2023-03-01T13:57:43;9.10;;;6.45;;
63203;SDS011;49297;43.210;27.914;2023-03-01T14:00:31;11.40;;;10.05;;
63203;SDS011;49297;43.210;27.914;2023-03-01T14:03:01;10.57;;;9.48;;
63203;SDS011;49297;43.210;27.914;2023-03-01T14:05:39;10.07;;;8.80;;
63203;SDS011;49297;43.210;27.914;2023-03-01T14:08:28;7.90;;;7.07;;
63203;SDS011;49297;43.210;27.914;2023-03-01T14:18:50;10.35;;;7.28;;
63203;SDS011;49297;43.210;27.914;2023-03-01T14:21:29;9.27;;;8.35;;
63203;SDS011;49297;43.210;27.914;2023-03-01T14:23:55;10.20;;;7.57;;
63203;SDS011;49297;43.210;27.914;2023-03-01T14:26:22;9.52;;;7.93;;
63203;SDS011;49297;43.210;27.914;2023-03-01T14:28:49;10.65;;;9.63;;
63203;SDS011;49297;43.210;27.914;2023-03-01T14:31:30;10.25;;;9.35;;
63203;SDS011;49297;43.210;27.914;2023-03-01T14:33:59;14.07;;;11.38;;
63203;SDS011;49297;43.210;27.914;2023-03-01T14:36:30;14.90;;;9.10;;
63203;SDS011;49297;43.210;27.914;2023-03-01T14:38:57;10.15;;;9.18;;
63203;SDS011;49297;43.210;27.914;2023-03-01T14:41:30;18.17;;;15.93;;
63203;SDS011;49297;43.210;27.914;2023-03-01T14:44:02;12.27;;;11.18;;
63203;SDS011;49297;43.210;27.914;2023-03-01T14:46:33;14.20;;;10.60;;
63203;SDS011;49297;43.210;27.914;2023-03-01T14:51:36;13.77;;;9.75;;
63203;SDS011;49297;43.210;27.914;2023-03-01T14:54:19;12.95;;;7.65;;
63203;SDS011;49297;43.210;27.914;2023-03-01T14:56:49;9.82;;;7.93;;
63203;SDS011;49297;43.210;27.914;2023-03-01T14:59:16;35.10;;;10.52;;
63203;SDS011;49297;43.210;27.914;2023-03-01T15:01:46;9.40;;;8.43;;
63203;SDS011;49297;43.210;27.914;2023-03-01T15:04:13;13.10;;;8.27;;
63203;SDS011;49297;43.210;27.914;2023-03-01T15:06:39;8.13;;;7.25;;
63203;SDS011;49297;43.210;27.914;2023-03-01T15:09:06;10.48;;;7.93;;
63203;SDS011;49297;43.210;27.914;2023-03-01T15:11:43;15.95;;;8.77;;
63203;SDS011;49297;43.210;27.914;2023-03-01T15:14:26;10.38;;;8.98;;
63203;SDS011;49297;43.210;27.914;2023-03-01T15:19:20;7.13;;;6.13;;
63203;SDS011;49297;43.210;27.914;2023-03-01T15:21:49;9.35;;;6.40;;
63203;SDS011;49297;43.210;27.914;2023-03-01T15:24:20;11.10;;;7.38;;
63203;SDS011;49297;43.210;27.914;2023-03-01T15:26:50;9.35;;;8.45;;
63203;SDS011;49297;43.210;27.914;2023-03-01T15:29:26;8.38;;;6.85;;
63203;SDS011;49297;43.210;27.914;2023-03-01T15:32:02;10.77;;;8.02;;
63203;SDS011;49297;43.210;27.914;2023-03-01T15:34:31;21.92;;;8.60;;
63203;SDS011;49297;43.210;27.914;2023-03-01T15:37:01;14.38;;;8.73;;
63203;SDS011;49297;43.210;27.914;2023-03-01T15:42:09;10.85;;;8.80;;
63203;SDS011;49297;43.210;27.914;2023-03-01T15:48:03;10.75;;;7.72;;
63203;SDS011;49297;43.210;27.914;2023-03-01T15:50:32;8.98;;;7.25;;
63203;SDS011;49297;43.210;27.914;2023-03-01T15:53:00;13.82;;;9.75;;
63203;SDS011;49297;43.210;27.914;2023-03-01T15:55:32;11.57;;;7.72;;
63203;SDS011;49297;43.210;27.914;2023-03-01T15:58:15;10.50;;;9.02;;
63203;SDS011;49297;43.210;27.914;2023-03-01T16:00:44;9.07;;;8.13;;
63203;SDS011;49297;43.210;27.914;2023-03-01T16:03:10;12.05;;;8.63;;
63203;SDS011;49297;43.210;27.914;2023-03-01T16:05:37;9.75;;;8.90;;
63203;SDS011;49297;43.210;27.914;2023-03-01T16:08:04;12.93;;;8.13;;
63203;SDS011;49297;43.210;27.914;2023-03-01T16:10:32;9.50;;;7.78;;
63203;SDS011;49297;43.210;27.914;2023-03-01T16:12:59;9.55;;;8.38;;
63203;SDS011;49297;43.210;27.914;2023-03-01T16:15:32;8.73;;;7.90;;
63203;SDS011;49297;43.210;27.914;2023-03-01T16:18:02;11.45;;;8.48;;
63203;SDS011;49297;43.210;27.914;2023-03-01T16:20:28;9.68;;;8.65;;
63203;SDS011;49297;43.210;27.914;2023-03-01T16:22:57;12.90;;;7.68;;
63203;SDS011;49297;43.210;27.914;2023-03-01T16:25:25;9.52;;;8.55;;
63203;SDS011;49297;43.210;27.914;2023-03-01T16:27:51;9.32;;;7.70;;
63203;SDS011;49297;43.210;27.914;2023-03-01T16:30:19;10.93;;;9.45;;
63203;SDS011;49297;43.210;27.914;2023-03-01T16:32:46;8.70;;;7.80;;